createdAt,value
2022-11-05T00:00:38.753Z,7.12
2022-11-05T00:03:24.585Z,7.10
2022-11-05T00:06:12.579Z,7.14
2022-11-05T00:09:00.349Z,7.18
2022-11-05T00:11:46.298Z,7.23
2022-11-05T00:14:32.467Z,7.27
2022-11-05T00:16:59.483Z,7.25
2022-11-05T00:19:26.546Z,7.22
2022-11-05T00:22:12.926Z,7.17
2022-11-05T00:24:58.737Z,7.08
2022-11-05T00:27:25.768Z,7.02
2022-11-05T00:29:52.868Z,6.93
2022-11-05T00:32:19.940Z,6.86
2022-11-05T00:34:46.896Z,6.79
2022-11-05T00:37:13.814Z,6.75
2022-11-05T00:39:40.853Z,6.67
2022-11-05T00:42:26.725Z,6.60
2022-11-05T00:45:03.073Z,6.51
2022-11-05T00:47:50.857Z,6.43
2022-11-05T00:50:20.653Z,6.36
2022-11-05T00:52:56.954Z,6.30
2022-11-05T00:55:28.468Z,6.25
2022-11-05T00:57:57.654Z,6.17
2022-11-05T01:00:28.879Z,6.13
2022-11-05T01:03:03.011Z,6.07
2022-11-05T01:05:31.946Z,6.02
2022-11-05T01:08:01.446Z,6.00
2022-11-05T01:10:29.271Z,6.01
2022-11-05T01:12:57.240Z,6.03
2022-11-05T01:15:24.723Z,6.06
2022-11-05T01:17:52.482Z,6.08
2022-11-05T01:20:19.656Z,6.05
2022-11-05T01:22:46.722Z,6.02
2022-11-05T01:25:14.029Z,5.97
2022-11-05T01:27:41.044Z,5.94
2022-11-05T01:30:09.754Z,5.90
2022-11-05T01:32:37.780Z,5.88
2022-11-05T01:35:07.538Z,5.85
2022-11-05T01:37:36.339Z,5.83
2022-11-05T01:40:06.776Z,5.78
2022-11-05T01:42:34.469Z,5.72
2022-11-05T01:45:12.412Z,5.69
2022-11-05T01:48:01.398Z,5.67
2022-11-05T01:50:34.555Z,5.62
2022-11-05T01:53:36.247Z,5.59
2022-11-05T01:56:43.262Z,5.56
2022-11-05T01:59:24.912Z,5.55
2022-11-05T02:01:53.571Z,5.52
2022-11-05T02:04:32.474Z,5.52
2022-11-05T02:07:00.136Z,5.52
2022-11-05T02:09:41.219Z,5.53
2022-11-05T02:12:09.942Z,5.53
2022-11-05T02:14:36.957Z,5.54
2022-11-05T02:17:37.662Z,5.53
2022-11-05T02:20:56.217Z,5.48
2022-11-05T02:23:54.598Z,5.44
2022-11-05T02:27:25.803Z,5.43
2022-11-05T02:30:05.192Z,5.39
2022-11-05T02:33:17.843Z,5.39
2022-11-05T02:36:03.607Z,5.35
2022-11-05T02:38:51.165Z,5.33
2022-11-05T02:42:02.050Z,5.30
2022-11-05T02:45:21.285Z,5.23
2022-11-05T02:48:14.203Z,5.18
2022-11-05T02:51:00.565Z,5.15
2022-11-05T02:53:44.885Z,5.10
2022-11-05T02:56:23.983Z,5.07
2022-11-05T02:58:50.994Z,5.03
2022-11-05T03:01:18.225Z,4.97
2022-11-05T03:04:09.433Z,4.92
2022-11-05T03:07:03.640Z,4.86
2022-11-05T03:10:07.072Z,4.80
2022-11-05T03:12:47.739Z,4.73
2022-11-05T03:15:44.092Z,4.67
2022-11-05T03:18:42.868Z,4.67
2022-11-05T03:21:21.825Z,4.64
2022-11-05T03:24:15.608Z,4.64
2022-11-05T03:26:54.264Z,4.64
2022-11-05T03:29:33.520Z,4.64
2022-11-05T03:32:04.698Z,4.61
2022-11-05T03:34:38.726Z,4.60
2022-11-05T03:37:07.767Z,4.58
2022-11-05T03:39:43.839Z,4.56
2022-11-05T03:42:17.003Z,4.56
2022-11-05T03:44:55.352Z,4.59
2022-11-05T03:47:37.084Z,4.62
2022-11-05T03:50:17.586Z,4.64
2022-11-05T03:53:28.141Z,4.66
2022-11-05T03:56:14.108Z,4.66
2022-11-05T03:58:44.855Z,4.65
2022-11-05T04:01:12.604Z,4.65
2022-11-05T04:03:39.703Z,4.64
2022-11-05T04:06:27.937Z,4.61
2022-11-05T04:09:13.619Z,4.55
2022-11-05T04:11:59.507Z,4.49
2022-11-05T04:14:26.519Z,4.44
2022-11-05T04:17:11.712Z,4.40
2022-11-05T04:20:03.290Z,4.37
2022-11-05T04:22:54.194Z,4.32
2022-11-05T04:25:23.211Z,4.28
2022-11-05T04:28:00.434Z,4.25
2022-11-05T04:30:27.493Z,4.22
2022-11-05T04:33:05.112Z,4.22
2022-11-05T04:35:45.553Z,4.19
2022-11-05T04:38:17.515Z,4.17
2022-11-05T04:40:48.210Z,4.14
2022-11-05T04:43:19.572Z,4.14
2022-11-05T04:45:46.957Z,4.14
2022-11-05T04:48:13.947Z,4.14
2022-11-05T04:50:40.956Z,4.14
2022-11-05T04:53:08.147Z,4.11
2022-11-05T04:55:35.471Z,4.10
2022-11-05T04:58:02.483Z,4.08
2022-11-05T05:00:29.502Z,4.06
2022-11-05T05:02:56.593Z,4.03
2022-11-05T05:05:24.564Z,4.02
2022-11-05T05:07:51.633Z,3.99
2022-11-05T05:10:18.798Z,4.00
2022-11-05T05:12:45.863Z,4.02
2022-11-05T05:15:13.277Z,4.03
2022-11-05T05:17:40.401Z,4.04
2022-11-05T05:20:26.155Z,4.03
2022-11-05T05:22:58.948Z,4.07
2022-11-05T05:25:25.952Z,4.08
2022-11-05T05:27:56.074Z,4.09
2022-11-05T05:30:23.150Z,4.13
2022-11-05T05:32:50.202Z,4.14
2022-11-05T05:35:17.635Z,4.17
2022-11-05T05:37:44.765Z,4.20
2022-11-05T05:40:11.880Z,4.24
2022-11-05T05:42:42.843Z,4.28
2022-11-05T05:45:12.473Z,4.33
2022-11-05T05:47:39.751Z,4.36
2022-11-05T05:50:07.124Z,4.38
2022-11-05T05:52:34.103Z,4.41
2022-11-05T05:55:01.161Z,4.41
2022-11-05T05:57:28.544Z,4.43
2022-11-05T05:59:55.583Z,4.44
2022-11-05T06:02:22.890Z,4.45
2022-11-05T06:04:50.311Z,4.48
2022-11-05T06:07:17.333Z,4.53
2022-11-05T06:09:44.468Z,4.55
2022-11-05T06:12:11.593Z,4.58
2022-11-05T06:14:38.663Z,4.63
2022-11-05T06:17:07.649Z,4.65
2022-11-05T06:19:34.607Z,4.67
2022-11-05T06:22:01.619Z,4.69
2022-11-05T06:24:29.589Z,4.66
2022-11-05T06:26:56.579Z,4.64
2022-11-05T06:29:23.709Z,4.60
2022-11-05T06:31:50.638Z,4.52
2022-11-05T06:34:17.730Z,4.44
2022-11-05T06:36:44.773Z,4.34
2022-11-05T06:39:12.961Z,4.24
2022-11-05T06:42:04.009Z,4.14
2022-11-05T06:44:27.933Z,4.04
2022-11-05T06:46:54.951Z,3.96
2022-11-05T06:49:24.657Z,3.87
2022-11-05T06:51:52.885Z,3.83
2022-11-05T06:54:20.043Z,3.81
2022-11-05T06:56:47.127Z,3.77
2022-11-05T06:59:14.292Z,3.77
2022-11-05T07:01:41.348Z,3.73
2022-11-05T07:04:08.444Z,3.70
2022-11-05T07:06:37.068Z,3.70
2022-11-05T07:09:04.888Z,3.70
2022-11-05T07:11:31.915Z,3.72
2022-11-05T07:13:59.127Z,3.73
2022-11-05T07:16:29.908Z,3.77
2022-11-05T07:18:56.891Z,3.82
2022-11-05T07:21:23.851Z,3.84
2022-11-05T07:23:50.884Z,3.88
2022-11-05T07:26:18.891Z,3.94
2022-11-05T07:28:46.109Z,4.03
2022-11-05T07:31:13.156Z,4.13
2022-11-05T07:33:40.908Z,4.22
2022-11-05T07:36:08.607Z,4.33
2022-11-05T07:38:35.663Z,4.46
2022-11-05T07:41:02.817Z,4.61
2022-11-05T07:43:29.913Z,4.77
2022-11-05T07:45:57.028Z,4.96
2022-11-05T07:48:23.937Z,5.14
2022-11-05T07:50:53.067Z,5.29
2022-11-05T07:53:21.174Z,5.45
2022-11-05T07:55:48.198Z,5.58
2022-11-05T07:58:15.271Z,5.68
2022-11-05T08:00:42.440Z,5.78
2022-11-05T08:03:16.149Z,5.88
2022-11-05T08:05:47.128Z,5.96
2022-11-05T08:08:18.355Z,6.11
2022-11-05T08:10:46.831Z,6.19
2022-11-05T08:13:14.380Z,6.29
2022-11-05T08:15:43.157Z,6.41
2022-11-05T08:18:17.306Z,6.57
2022-11-05T08:20:46.865Z,6.66
2022-11-05T08:23:14.414Z,6.73
2022-11-05T08:25:42.128Z,6.80
2022-11-05T08:28:12.800Z,6.93
2022-11-05T08:30:39.962Z,7.03
2022-11-05T08:33:11.812Z,7.18
2022-11-05T08:35:40.620Z,7.28
2022-11-05T08:38:13.558Z,7.37
2022-11-05T08:40:42.452Z,7.45
2022-11-05T08:43:12.841Z,7.60
2022-11-05T08:45:41.373Z,7.72
2022-11-05T08:48:17.665Z,7.86
2022-11-05T08:50:47.458Z,7.97
2022-11-05T08:53:15.829Z,8.00
2022-11-05T08:55:44.226Z,8.02
2022-11-05T08:58:15.303Z,8.04
2022-11-05T09:00:48.610Z,8.07
2022-11-05T09:03:26.581Z,8.09
2022-11-05T09:05:53.557Z,8.14
2022-11-05T09:08:21.886Z,8.16
2022-11-05T09:10:49.932Z,8.22
2022-11-05T09:13:19.718Z,8.26
2022-11-05T09:15:49.746Z,8.30
2022-11-05T09:18:19.277Z,8.36
2022-11-05T09:20:47.907Z,8.41
2022-11-05T09:23:15.631Z,8.46
2022-11-05T09:25:44.102Z,8.53
2022-11-05T09:28:21.419Z,8.62
2022-11-05T09:30:51.676Z,8.69
2022-11-05T09:33:23.991Z,8.77
2022-11-05T09:35:52.783Z,8.84
2022-11-05T09:38:20.064Z,8.93
2022-11-05T09:40:59.596Z,9.01
2022-11-05T09:43:38.155Z,9.08
2022-11-05T09:46:17.427Z,9.15
2022-11-05T09:48:49.666Z,9.22
2022-11-05T09:51:23.694Z,9.32
2022-11-05T09:53:53.684Z,9.37
2022-11-05T09:56:27.058Z,9.44
2022-11-05T09:59:05.245Z,9.50
2022-11-05T10:01:37.888Z,9.59
2022-11-05T10:04:16.717Z,9.66
2022-11-05T10:06:59.886Z,9.71
2022-11-05T10:09:36.897Z,9.77
2022-11-05T10:12:42.519Z,9.79
2022-11-05T10:15:09.621Z,9.82
2022-11-05T10:17:42.183Z,9.81
2022-11-05T10:20:39.150Z,9.87
2022-11-05T10:23:12.758Z,9.92
2022-11-05T10:26:10.404Z,10.01
2022-11-05T10:28:37.625Z,10.07
2022-11-05T10:31:10.022Z,10.18
2022-11-05T10:33:45.808Z,10.24
2022-11-05T10:36:25.686Z,10.35
2022-11-05T10:38:58.959Z,10.43
2022-11-05T10:41:52.676Z,10.59
2022-11-05T10:44:34.664Z,10.67
2022-11-05T10:47:29.633Z,10.67
2022-11-05T10:50:03.745Z,10.74
2022-11-05T10:53:33.959Z,10.86
2022-11-05T10:56:01.131Z,10.97
2022-11-05T10:58:34.762Z,11.07
2022-11-05T11:01:12.159Z,11.19
2022-11-05T11:03:52.716Z,11.30
2022-11-05T11:06:32.495Z,11.43
2022-11-05T11:09:05.014Z,11.47
2022-11-05T11:11:40.576Z,11.51
2022-11-05T11:14:14.626Z,11.57
2022-11-05T11:16:48.237Z,11.64
2022-11-05T11:19:37.276Z,11.69
2022-11-05T11:22:04.120Z,11.75
2022-11-05T11:24:42.779Z,11.74
2022-11-05T11:27:34.020Z,11.73
2022-11-05T11:30:03.801Z,11.72
2022-11-05T11:32:40.097Z,11.72
2022-11-05T11:35:21.290Z,11.70
2022-11-05T11:37:52.054Z,11.72
2022-11-05T11:40:30.841Z,11.72
2022-11-05T11:43:05.649Z,11.70
2022-11-05T11:45:49.581Z,11.68
2022-11-05T11:48:24.575Z,11.68
2022-11-05T11:50:52.027Z,11.70
2022-11-05T11:53:30.409Z,11.73
2022-11-05T11:56:00.384Z,11.77
2022-11-05T11:58:50.896Z,11.84
2022-11-05T12:01:54.029Z,11.89
2022-11-05T12:04:58.252Z,11.96
2022-11-05T12:07:49.291Z,12.00
2022-11-05T12:10:28.954Z,12.03
2022-11-05T12:13:20.776Z,12.10
2022-11-05T12:16:35.534Z,12.11
2022-11-05T12:19:40.447Z,12.10
2022-11-05T12:22:29.403Z,12.10
2022-11-05T12:25:57.830Z,12.10
2022-11-05T12:29:16.645Z,12.07
2022-11-05T12:32:11.164Z,12.03
2022-11-05T12:35:05.679Z,12.01
2022-11-05T12:37:38.603Z,11.98
2022-11-05T12:40:37.719Z,11.97
2022-11-05T12:43:24.185Z,11.93
2022-11-05T12:46:14.644Z,11.98
2022-11-05T12:49:01.072Z,12.01
2022-11-05T12:51:46.759Z,12.08
2022-11-05T12:54:58.953Z,12.16
2022-11-05T12:57:41.383Z,12.22
2022-11-05T13:00:10.564Z,12.23
2022-11-05T13:03:40.653Z,12.25
2022-11-05T13:06:21.433Z,12.28
2022-11-05T13:09:12.934Z,12.29
2022-11-05T13:11:58.729Z,12.33
2022-11-05T13:14:52.972Z,12.35
2022-11-05T13:17:32.040Z,12.35
2022-11-05T13:20:19.794Z,12.33
2022-11-05T13:22:55.217Z,12.27
2022-11-05T13:25:31.992Z,12.22
2022-11-05T13:28:23.499Z,12.19
2022-11-05T13:30:57.838Z,12.19
2022-11-05T13:33:34.292Z,12.15
2022-11-05T13:37:15.095Z,12.17
2022-11-05T13:39:56.401Z,12.14
2022-11-05T13:42:36.422Z,12.13
2022-11-05T13:45:09.226Z,12.08
2022-11-05T13:48:22.989Z,12.07
2022-11-05T13:50:56.271Z,12.03
2022-11-05T13:53:59.050Z,12.02
2022-11-05T13:57:11.908Z,11.98
2022-11-05T14:00:03.696Z,11.92
2022-11-05T14:03:14.856Z,11.90
2022-11-05T14:05:43.309Z,11.85
2022-11-05T14:08:19.996Z,11.85
2022-11-05T14:11:14.565Z,11.89
2022-11-05T14:13:45.458Z,11.89
2022-11-05T14:16:23.260Z,11.92
2022-11-05T14:19:18.142Z,11.95
2022-11-05T14:21:47.742Z,11.93
2022-11-05T14:24:27.076Z,11.93
2022-11-05T14:27:03.517Z,11.94
2022-11-05T14:29:43.068Z,11.91
2022-11-05T14:32:27.572Z,11.92
2022-11-05T14:35:02.331Z,11.89
2022-11-05T14:37:41.890Z,11.89
2022-11-05T14:40:43.590Z,11.86
2022-11-05T14:43:14.607Z,11.83
2022-11-05T14:45:55.468Z,11.85
2022-11-05T14:48:50.193Z,11.84
2022-11-05T14:51:35.739Z,11.85
2022-11-05T14:54:36.757Z,11.81
2022-11-05T14:57:05.127Z,11.75
2022-11-05T14:59:52.644Z,11.69
2022-11-05T15:02:38.194Z,11.64
2022-11-05T15:05:38.521Z,11.56
2022-11-05T15:08:26.602Z,11.47
2022-11-05T15:11:02.460Z,11.37
2022-11-05T15:13:49.753Z,11.32
2022-11-05T15:16:34.461Z,11.24
2022-11-05T15:19:03.187Z,11.16
2022-11-05T15:21:36.412Z,11.11
2022-11-05T15:24:04.717Z,11.03
2022-11-05T15:27:05.236Z,10.97
2022-11-05T15:29:33.844Z,10.88
2022-11-05T15:32:02.127Z,10.82
2022-11-05T15:34:33.416Z,10.78
2022-11-05T15:37:26.299Z,10.72
2022-11-05T15:39:55.727Z,10.67
2022-11-05T15:42:27.780Z,10.64
2022-11-05T15:45:00.162Z,10.61
2022-11-05T15:47:34.577Z,10.56
2022-11-05T15:50:14.049Z,10.49
2022-11-05T15:52:53.478Z,10.43
2022-11-05T15:55:25.444Z,10.39
2022-11-05T15:58:00.162Z,10.35
2022-11-05T16:00:34.021Z,10.31
2022-11-05T16:03:13.331Z,10.25
2022-11-05T16:05:47.249Z,10.23
2022-11-05T16:08:24.744Z,10.22
2022-11-05T16:11:00.477Z,10.21
2022-11-05T16:13:41.276Z,10.20
2022-11-05T16:16:14.617Z,10.18
2022-11-05T16:18:44.268Z,10.16
2022-11-05T16:21:18.975Z,10.13
2022-11-05T16:23:58.862Z,10.13
2022-11-05T16:29:35.604Z,10.13
2022-11-05T16:32:33.649Z,10.13
2022-11-05T16:35:05.312Z,10.12
2022-11-05T16:37:46.335Z,10.13
2022-11-05T16:40:19.322Z,10.17
2022-11-05T16:42:48.579Z,10.16
2022-11-05T16:45:21.499Z,10.17
2022-11-05T16:47:49.228Z,10.16
2022-11-05T16:50:27.191Z,10.15
2022-11-05T16:52:54.564Z,10.14
2022-11-05T16:55:22.273Z,10.11
2022-11-05T16:57:54.535Z,10.11
2022-11-05T17:00:24.208Z,10.08
2022-11-05T17:02:52.859Z,10.08
2022-11-05T17:05:34.340Z,10.08
2022-11-05T17:08:03.571Z,10.08
2022-11-05T17:10:31.317Z,10.08
2022-11-05T17:12:58.864Z,10.06
2022-11-05T17:15:35.775Z,10.08
2022-11-05T17:18:06.045Z,10.05
2022-11-05T17:20:48.540Z,10.05
2022-11-05T17:23:20.347Z,10.04
2022-11-05T17:25:52.212Z,10.03
2022-11-05T17:28:19.914Z,10.02
2022-11-05T17:30:52.855Z,10.04
2022-11-05T17:33:23.255Z,10.04
2022-11-05T17:35:51.859Z,10.03
2022-11-05T17:38:25.211Z,10.04
2022-11-05T17:40:53.287Z,10.05
2022-11-05T17:43:20.618Z,10.02
2022-11-05T17:45:51.944Z,10.02
2022-11-05T17:48:20.949Z,10.02
2022-11-05T17:50:50.547Z,10.01
2022-11-05T17:53:19.426Z,10.02
2022-11-05T17:55:47.548Z,9.99
2022-11-05T17:58:15.409Z,9.98
2022-11-05T18:00:43.870Z,9.98
2022-11-05T18:03:12.482Z,9.97
2022-11-05T18:05:41.542Z,9.99
2022-11-05T18:08:09.574Z,9.98
2022-11-05T18:10:38.995Z,9.97
2022-11-05T18:13:09.182Z,9.96
2022-11-05T18:15:40.866Z,9.94
2022-11-05T18:18:08.833Z,9.98
2022-11-05T18:20:37.491Z,9.98
2022-11-05T18:23:04.642Z,9.99
2022-11-05T18:25:31.721Z,10.02
2022-11-05T18:27:58.719Z,10.03
2022-11-05T18:30:27.054Z,10.05
2022-11-05T18:32:54.060Z,10.06
2022-11-05T18:35:21.075Z,10.08
2022-11-05T18:37:48.129Z,10.09
2022-11-05T18:40:15.350Z,10.10
2022-11-05T18:42:42.643Z,10.11
2022-11-05T18:45:10.854Z,10.10
2022-11-05T18:47:37.918Z,10.10
2022-11-05T18:50:07.801Z,10.10
2022-11-05T18:52:36.102Z,10.09
2022-11-05T18:55:03.421Z,10.09
2022-11-05T18:57:32.686Z,10.11
2022-11-05T18:59:59.835Z,10.09
2022-11-05T19:02:27.201Z,10.10
2022-11-05T19:07:41.555Z,10.07
2022-11-05T19:10:09.465Z,10.07
2022-11-05T19:12:36.473Z,10.05
2022-11-05T19:15:04.961Z,10.06
2022-11-05T19:17:34.845Z,10.04
2022-11-05T19:20:02.438Z,10.04
2022-11-05T19:22:29.623Z,10.03
2022-11-05T19:24:56.614Z,10.02
2022-11-05T19:27:23.752Z,10.02
2022-11-05T19:29:51.173Z,10.01
2022-11-05T19:32:18.212Z,10.01
2022-11-05T19:34:45.306Z,10.00
2022-11-05T19:37:12.421Z,9.99
2022-11-05T19:39:41.127Z,10.00
2022-11-05T19:42:08.103Z,9.98
2022-11-05T19:44:35.159Z,9.95
2022-11-05T19:47:02.205Z,9.93
2022-11-05T19:49:29.243Z,9.91
2022-11-05T19:51:56.283Z,9.90
2022-11-05T19:54:23.427Z,9.89
2022-11-05T19:56:51.807Z,9.87
2022-11-05T19:59:19.299Z,9.85
2022-11-05T20:01:46.615Z,9.82
2022-11-05T20:04:13.806Z,9.79
2022-11-05T20:06:41.010Z,9.78
2022-11-05T20:09:22.091Z,9.78
2022-11-05T20:11:54.487Z,9.77
2022-11-05T20:14:25.057Z,9.73
2022-11-05T20:16:53.323Z,9.64
2022-11-05T20:19:22.436Z,9.55
2022-11-05T20:21:50.704Z,9.47
2022-11-05T20:24:25.459Z,9.41
2022-11-05T20:26:55.074Z,9.35
2022-11-05T20:29:26.057Z,9.28
2022-11-05T20:31:55.119Z,9.24
2022-11-05T20:34:22.158Z,9.16
2022-11-05T20:36:49.290Z,9.14
2022-11-05T20:39:17.683Z,9.12
2022-11-05T20:41:44.707Z,9.12
2022-11-05T20:44:12.981Z,9.13
2022-11-05T20:46:40.159Z,9.13
2022-11-05T20:49:09.949Z,9.14
2022-11-05T20:51:38.085Z,9.14
2022-11-05T20:54:05.650Z,9.15
2022-11-05T20:56:37.402Z,9.17
2022-11-05T20:59:05.805Z,9.17
2022-11-05T21:01:34.371Z,9.17
2022-11-05T21:04:03.102Z,9.21
2022-11-05T21:06:31.431Z,9.24
2022-11-05T21:08:58.682Z,9.23
2022-11-05T21:11:49.946Z,9.25
2022-11-05T21:14:18.015Z,9.24
2022-11-05T21:16:45.053Z,9.26
2022-11-05T21:19:12.079Z,9.24
2022-11-05T21:21:41.229Z,9.26
2022-11-05T21:24:08.497Z,9.24
2022-11-05T21:26:35.466Z,9.25
2022-11-05T21:29:02.545Z,9.24
2022-11-05T21:31:29.626Z,9.25
2022-11-05T21:33:56.659Z,9.25
2022-11-05T21:36:23.637Z,9.25
2022-11-05T21:38:50.718Z,9.28
2022-11-05T21:41:19.814Z,9.30
2022-11-05T21:43:46.831Z,9.29
2022-11-05T21:46:13.940Z,9.31
2022-11-05T21:48:41.183Z,9.33
2022-11-05T21:51:29.291Z,9.36
2022-11-05T21:54:14.974Z,9.35
2022-11-05T21:57:05.987Z,9.35
2022-11-05T21:59:48.585Z,9.35
2022-11-05T22:02:22.405Z,9.35
2022-11-05T22:04:53.439Z,9.33
2022-11-05T22:07:28.997Z,9.32
2022-11-05T22:09:56.544Z,9.29
2022-11-05T22:12:24.971Z,9.26
2022-11-05T22:14:52.496Z,9.19
2022-11-05T22:17:20.773Z,9.12
2022-11-05T22:19:47.916Z,9.05
2022-11-05T22:22:15.031Z,8.99
2022-11-05T22:24:44.265Z,8.91
2022-11-05T22:27:18.057Z,8.85
2022-11-05T22:29:46.102Z,8.81
2022-11-05T22:32:14.302Z,8.76
2022-11-05T22:34:42.490Z,8.71
2022-11-05T22:37:12.431Z,8.68
2022-11-05T22:39:39.619Z,8.63
2022-11-05T22:42:08.910Z,8.61
2022-11-05T22:44:36.782Z,8.60
2022-11-05T22:47:04.025Z,8.59
2022-11-05T22:49:31.455Z,8.60
2022-11-05T22:51:59.899Z,8.60
2022-11-05T22:54:26.925Z,8.60
2022-11-05T22:56:53.891Z,8.58
2022-11-05T22:59:21.050Z,8.54
2022-11-05T23:01:48.279Z,8.50
2022-11-05T23:04:16.221Z,8.51
2022-11-05T23:07:02.340Z,8.49
2022-11-05T23:09:53.417Z,8.49
2022-11-05T23:12:37.946Z,8.50
2022-11-05T23:15:07.984Z,8.51
2022-11-05T23:17:54.795Z,8.50
2022-11-05T23:20:42.036Z,8.48
2022-11-05T23:23:31.661Z,8.45
2022-11-05T23:26:21.016Z,8.42
2022-11-05T23:28:48.061Z,8.38
2022-11-05T23:31:33.949Z,8.36
2022-11-05T23:34:00.994Z,8.33
2022-11-05T23:36:46.769Z,8.32
2022-11-05T23:39:13.774Z,8.30
2022-11-05T23:41:59.318Z,8.30
2022-11-05T23:44:44.694Z,8.26
2022-11-05T23:47:30.544Z,8.28
2022-11-05T23:49:57.530Z,8.28
2022-11-05T23:52:24.518Z,8.29
2022-11-05T23:54:51.454Z,8.31
2022-11-05T23:57:18.459Z,8.31
2022-11-05T23:59:45.445Z,8.31
